sensor_id;sensor_type;location;lat;lon;timestamp;pressure;altitude;pressure_sealevel;temperature;humidity
38852;BME280;24605;50.092;9.182;2023-12-14T00:02:07;153477.56;;;5.62;100.00
38852;BME280;24605;50.092;9.182;2023-12-14T00:04:35;153498.34;;;5.70;100.00
38852;BME280;24605;50.092;9.182;2023-12-14T00:07:02;153417.81;;;5.38;100.00
38852;BME280;24605;50.092;9.182;2023-12-14T00:09:28;153450.25;;;5.51;100.00
38852;BME280;24605;50.092;9.182;2023-12-14T00:11:55;153446.38;;;5.49;100.00
38852;BME280;24605;50.092;9.182;2023-12-14T00:14:21;153451.59;;;5.52;100.00
38852;BME280;24605;50.092;9.182;2023-12-14T00:16:47;153446.38;;;5.49;100.00
38852;BME280;24605;50.092;9.182;2023-12-14T00:19:14;153424.34;;;5.41;100.00
38852;BME280;24605;50.092;9.182;2023-12-14T00:21:42;153385.34;;;5.25;100.00
38852;BME280;24605;50.092;9.182;2023-12-14T00:24:09;153376.25;;;5.22;100.00
38852;BME280;24605;50.092;9.182;2023-12-14T00:26:35;153369.78;;;5.19;100.00
38852;BME280;24605;50.092;9.182;2023-12-14T00:29:01;153390.56;;;5.27;100.00
38852;BME280;24605;50.092;9.182;2023-12-14T00:31:29;153382.78;;;5.24;100.00
38852;BME280;24605;50.092;9.182;2023-12-14T00:33:55;153397.03;;;5.30;100.00
38852;BME280;24605;50.092;9.182;2023-12-14T00:36:21;153402.25;;;5.32;100.00
38852;BME280;24605;50.092;9.182;2023-12-14T00:38:49;153425.59;;;5.41;100.00
38852;BME280;24605;50.092;9.182;2023-12-14T00:41:16;153463.28;;;5.56;100.00
38852;BME280;24605;50.092;9.182;2023-12-14T00:43:42;153424.34;;;5.41;100.00
38852;BME280;24605;50.092;9.182;2023-12-14T00:46:08;153456.78;;;5.54;100.00
38852;BME280;24605;50.092;9.182;2023-12-14T00:48:36;153400.97;;;5.31;100.00
38852;BME280;24605;50.092;9.182;2023-12-14T00:51:03;153394.47;;;5.29;100.00
38852;BME280;24605;50.092;9.182;2023-12-14T00:53:29;153412.66;;;5.36;100.00
38852;BME280;24605;50.092;9.182;2023-12-14T00:55:57;153402.25;;;5.32;100.00
38852;BME280;24605;50.092;9.182;2023-12-14T00:58:24;153408.72;;;5.34;100.00
38852;BME280;24605;50.092;9.182;2023-12-14T01:00:50;153417.81;;;5.38;100.00
38852;BME280;24605;50.092;9.182;2023-12-14T01:03:16;153421.72;;;5.40;100.00
38852;BME280;24605;50.092;9.182;2023-12-14T01:05:42;153442.50;;;5.48;100.00
38852;BME280;24605;50.092;9.182;2023-12-14T01:08:08;153460.69;;;5.55;100.00
38852;BME280;24605;50.092;9.182;2023-12-14T01:10:35;153465.88;;;5.57;100.00
38852;BME280;24605;50.092;9.182;2023-12-14T01:13:03;153480.19;;;5.63;100.00
38852;BME280;24605;50.092;9.182;2023-12-14T01:15:29;153508.72;;;5.74;100.00
38852;BME280;24605;50.092;9.182;2023-12-14T01:17:56;153491.88;;;5.68;100.00
38852;BME280;24605;50.092;9.182;2023-12-14T01:20:22;153484.06;;;5.64;100.00
38852;BME280;24605;50.092;9.182;2023-12-14T01:22:49;153532.09;;;5.84;100.00
38852;BME280;24605;50.092;9.182;2023-12-14T01:25:15;153484.06;;;5.64;100.00
38852;BME280;24605;50.092;9.182;2023-12-14T01:27:42;153516.53;;;5.77;100.00
38852;BME280;24605;50.092;9.182;2023-12-14T01:30:11;153494.44;;;5.69;100.00
38852;BME280;24605;50.092;9.182;2023-12-14T01:32:37;153500.97;;;5.71;100.00
38852;BME280;24605;50.092;9.182;2023-12-14T01:35:04;153484.06;;;5.64;100.00
38852;BME280;24605;50.092;9.182;2023-12-14T01:37:31;153513.94;;;5.76;100.00
38852;BME280;24605;50.092;9.182;2023-12-14T01:39:57;153517.81;;;5.78;100.00
38852;BME280;24605;50.092;9.182;2023-12-14T01:42:24;153577.66;;;6.02;100.00
38852;BME280;24605;50.092;9.182;2023-12-14T01:44:51;153599.72;;;6.10;100.00
38852;BME280;24605;50.092;9.182;2023-12-14T01:47:19;153589.34;;;6.06;100.00
38852;BME280;24605;50.092;9.182;2023-12-14T01:49:45;153586.72;;;6.05;100.00
38852;BME280;24605;50.092;9.182;2023-12-14T01:52:11;153568.50;;;5.98;100.00
38852;BME280;24605;50.092;9.182;2023-12-14T01:54:38;153588.00;;;6.06;100.00
38852;BME280;24605;50.092;9.182;2023-12-14T01:57:04;153601.03;;;6.11;100.00
38852;BME280;24605;50.092;9.182;2023-12-14T01:59:31;153604.91;;;6.13;100.00
38852;BME280;24605;50.092;9.182;2023-12-14T02:01:58;153602.31;;;6.11;100.00
38852;BME280;24605;50.092;9.182;2023-12-14T02:04:28;153627.03;;;6.21;100.00
38852;BME280;24605;50.092;9.182;2023-12-14T02:06:55;153580.25;;;6.03;100.00
38852;BME280;24605;50.092;9.182;2023-12-14T02:09:21;153534.69;;;5.85;100.00
38852;BME280;24605;50.092;9.182;2023-12-14T02:11:47;153508.72;;;5.74;100.00
38852;BME280;24605;50.092;9.182;2023-12-14T02:14:14;153537.31;;;5.86;100.00
38852;BME280;24605;50.092;9.182;2023-12-14T02:16:40;153532.09;;;5.84;100.00
38852;BME280;24605;50.092;9.182;2023-12-14T02:19:07;153569.78;;;5.99;100.00
38852;BME280;24605;50.092;9.182;2023-12-14T02:21:34;153560.69;;;5.95;100.00
38852;BME280;24605;50.092;9.182;2023-12-14T02:24:03;153560.69;;;5.95;100.00
38852;BME280;24605;50.092;9.182;2023-12-14T02:26:29;153565.91;;;5.97;100.00
38852;BME280;24605;50.092;9.182;2023-12-14T02:28:56;153620.50;;;6.19;100.00
38852;BME280;24605;50.092;9.182;2023-12-14T02:31:22;153634.78;;;6.24;100.00
38852;BME280;24605;50.092;9.182;2023-12-14T02:33:49;153664.66;;;6.36;100.00
38852;BME280;24605;50.092;9.182;2023-12-14T02:36:15;153672.47;;;6.39;100.00
38852;BME280;24605;50.092;9.182;2023-12-14T02:38:42;153630.91;;;6.23;100.00
38852;BME280;24605;50.092;9.182;2023-12-14T02:41:10;153647.81;;;6.30;100.00
38852;BME280;24605;50.092;9.182;2023-12-14T02:43:36;153641.28;;;6.27;100.00
38852;BME280;24605;50.092;9.182;2023-12-14T02:46:03;153671.22;;;6.39;100.00
38852;BME280;24605;50.092;9.182;2023-12-14T02:48:30;153668.59;;;6.38;100.00
38852;BME280;24605;50.092;9.182;2023-12-14T02:50:56;153682.84;;;6.43;100.00
38852;BME280;24605;50.092;9.182;2023-12-14T02:53:25;153646.50;;;6.29;100.00
38852;BME280;24605;50.092;9.182;2023-12-14T02:55:51;153604.91;;;6.13;100.00
38852;BME280;24605;50.092;9.182;2023-12-14T02:58:19;153646.50;;;6.29;100.00
38852;BME280;24605;50.092;9.182;2023-12-14T03:00:45;153645.22;;;6.29;100.00
38852;BME280;24605;50.092;9.182;2023-12-14T03:03:12;153615.34;;;6.17;100.00
38852;BME280;24605;50.092;9.182;2023-12-14T03:05:39;153606.19;;;6.13;100.00
38852;BME280;24605;50.092;9.182;2023-12-14T03:08:05;153637.41;;;6.25;100.00
38852;BME280;24605;50.092;9.182;2023-12-14T03:10:31;153656.91;;;6.33;100.00
38852;BME280;24605;50.092;9.182;2023-12-14T03:12:58;153655.56;;;6.33;100.00
38852;BME280;24605;50.092;9.182;2023-12-14T03:15:26;153660.78;;;6.35;100.00
38852;BME280;24605;50.092;9.182;2023-12-14T03:17:52;153641.28;;;6.27;100.00
38852;BME280;24605;50.092;9.182;2023-12-14T03:20:18;153656.91;;;6.33;100.00
38852;BME280;24605;50.092;9.182;2023-12-14T03:22:45;153647.81;;;6.30;100.00
38852;BME280;24605;50.092;9.182;2023-12-14T03:25:12;153604.91;;;6.13;100.00
38852;BME280;24605;50.092;9.182;2023-12-14T03:27:39;153554.22;;;5.92;100.00
38852;BME280;24605;50.092;9.182;2023-12-14T03:30:06;153546.41;;;5.89;100.00
38852;BME280;24605;50.092;9.182;2023-12-14T03:32:36;153516.53;;;5.77;100.00
38852;BME280;24605;50.092;9.182;2023-12-14T03:35:03;153497.03;;;5.70;100.00
38852;BME280;24605;50.092;9.182;2023-12-14T03:37:30;153339.94;;;5.07;100.00
38852;BME280;24605;50.092;9.182;2023-12-14T03:39:56;153342.53;;;5.08;100.00
38852;BME280;24605;50.092;9.182;2023-12-14T03:42:22;153398.34;;;5.30;100.00
38852;BME280;24605;50.092;9.182;2023-12-14T03:44:49;153464.56;;;5.57;100.00
38852;BME280;24605;50.092;9.182;2023-12-14T03:47:15;153517.81;;;5.78;100.00
38852;BME280;24605;50.092;9.182;2023-12-14T03:49:43;153523.00;;;5.80;100.00
38852;BME280;24605;50.092;9.182;2023-12-14T03:52:10;153550.28;;;5.91;100.00
38852;BME280;24605;50.092;9.182;2023-12-14T03:54:36;153519.13;;;5.78;100.00
38852;BME280;24605;50.092;9.182;2023-12-14T03:57:03;153489.25;;;5.67;100.00
38852;BME280;24605;50.092;9.182;2023-12-14T03:59:30;153465.88;;;5.57;100.00
38852;BME280;24605;50.092;9.182;2023-12-14T04:01:57;153425.59;;;5.41;100.00
38852;BME280;24605;50.092;9.182;2023-12-14T04:04:24;153449.00;;;5.51;100.00
38852;BME280;24605;50.092;9.182;2023-12-14T04:06:51;153478.84;;;5.62;100.00
38852;BME280;24605;50.092;9.182;2023-12-14T04:09:18;153500.97;;;5.71;100.00
38852;BME280;24605;50.092;9.182;2023-12-14T04:11:44;153489.25;;;5.67;100.00
38852;BME280;24605;50.092;9.182;2023-12-14T04:14:11;153446.38;;;5.49;100.00
38852;BME280;24605;50.092;9.182;2023-12-14T04:16:37;153477.56;;;5.62;100.00
38852;BME280;24605;50.092;9.182;2023-12-14T04:19:04;153493.16;;;5.68;100.00
38852;BME280;24605;50.092;9.182;2023-12-14T04:21:35;153513.94;;;5.76;100.00
38852;BME280;24605;50.092;9.182;2023-12-14T04:24:03;153489.25;;;5.67;100.00
38852;BME280;24605;50.092;9.182;2023-12-14T04:26:29;153519.13;;;5.78;100.00
38852;BME280;24605;50.092;9.182;2023-12-14T04:28:56;153565.91;;;5.97;100.00
38852;BME280;24605;50.092;9.182;2023-12-14T04:31:22;153593.22;;;6.08;100.00
38852;BME280;24605;50.092;9.182;2023-12-14T04:33:48;153580.25;;;6.03;100.00
38852;BME280;24605;50.092;9.182;2023-12-14T04:36:15;153541.19;;;5.87;100.00
38852;BME280;24605;50.092;9.182;2023-12-14T04:38:41;153455.47;;;5.53;100.00
38852;BME280;24605;50.092;9.182;2023-12-14T04:41:12;153434.69;;;5.45;100.00
38852;BME280;24605;50.092;9.182;2023-12-14T04:43:39;153429.50;;;5.43;100.00
38852;BME280;24605;50.092;9.182;2023-12-14T04:46:05;153432.09;;;5.44;100.00
38852;BME280;24605;50.092;9.182;2023-12-14T04:48:32;153459.41;;;5.55;100.00
38852;BME280;24605;50.092;9.182;2023-12-14T04:50:58;153506.13;;;5.73;100.00
38852;BME280;24605;50.092;9.182;2023-12-14T04:53:25;153471.09;;;5.59;100.00
38852;BME280;24605;50.092;9.182;2023-12-14T04:55:51;153464.56;;;5.57;100.00
38852;BME280;24605;50.092;9.182;2023-12-14T04:58:19;153411.31;;;5.36;100.00
38852;BME280;24605;50.092;9.182;2023-12-14T05:00:46;153417.81;;;5.38;100.00
38852;BME280;24605;50.092;9.182;2023-12-14T05:03:12;153429.50;;;5.43;100.00
38852;BME280;24605;50.092;9.182;2023-12-14T05:05:39;153436.03;;;5.45;100.00
38852;BME280;24605;50.092;9.182;2023-12-14T05:08:05;153399.63;;;5.31;100.00
38852;BME280;24605;50.092;9.182;2023-12-14T05:10:31;153391.88;;;5.28;100.00
38852;BME280;24605;50.092;9.182;2023-12-14T05:12:58;153403.56;;;5.32;100.00
38852;BME280;24605;50.092;9.182;2023-12-14T05:15:26;153415.25;;;5.37;100.00
38852;BME280;24605;50.092;9.182;2023-12-14T05:17:52;153482.78;;;5.64;100.00
38852;BME280;24605;50.092;9.182;2023-12-14T05:20:18;153485.34;;;5.65;100.00
38852;BME280;24605;50.092;9.182;2023-12-14T05:22:45;153461.97;;;5.56;100.00
38852;BME280;24605;50.092;9.182;2023-12-14T05:25:12;153538.59;;;5.86;100.00
38852;BME280;24605;50.092;9.182;2023-12-14T05:27:39;153516.53;;;5.77;100.00
38852;BME280;24605;50.092;9.182;2023-12-14T05:30:07;153545.13;;;5.89;100.00
38852;BME280;24605;50.092;9.182;2023-12-14T05:32:35;153538.59;;;5.86;100.00
38852;BME280;24605;50.092;9.182;2023-12-14T05:35:01;153569.78;;;5.99;100.00
38852;BME280;24605;50.092;9.182;2023-12-14T05:37:28;153567.19;;;5.97;100.00
38852;BME280;24605;50.092;9.182;2023-12-14T05:39:54;153508.72;;;5.74;100.00
38852;BME280;24605;50.092;9.182;2023-12-14T05:42:21;153537.31;;;5.86;100.00
38852;BME280;24605;50.092;9.182;2023-12-14T05:44:47;153515.25;;;5.77;100.00
38852;BME280;24605;50.092;9.182;2023-12-14T05:47:14;153478.84;;;5.62;100.00
38852;BME280;24605;50.092;9.182;2023-12-14T05:49:42;153468.50;;;5.58;100.00
38852;BME280;24605;50.092;9.182;2023-12-14T05:52:08;153472.38;;;5.60;100.00
38852;BME280;24605;50.092;9.182;2023-12-14T05:54:35;153526.94;;;5.82;100.00
38852;BME280;24605;50.092;9.182;2023-12-14T05:57:02;153490.53;;;5.67;100.00
38852;BME280;24605;50.092;9.182;2023-12-14T05:59:28;153439.91;;;5.47;100.00
38852;BME280;24605;50.092;9.182;2023-12-14T06:01:56;153534.69;;;5.85;100.00
38852;BME280;24605;50.092;9.182;2023-12-14T06:04:24;153538.59;;;5.86;100.00
38852;BME280;24605;50.092;9.182;2023-12-14T06:06:52;153533.44;;;5.84;100.00
38852;BME280;24605;50.092;9.182;2023-12-14T06:09:19;153520.41;;;5.79;100.00
38852;BME280;24605;50.092;9.182;2023-12-14T06:11:50;153493.16;;;5.68;100.00
38852;BME280;24605;50.092;9.182;2023-12-14T06:14:17;153500.97;;;5.71;100.00
38852;BME280;24605;50.092;9.182;2023-12-14T06:16:43;153530.81;;;5.83;100.00
38852;BME280;24605;50.092;9.182;2023-12-14T06:19:10;153537.31;;;5.86;100.00
38852;BME280;24605;50.092;9.182;2023-12-14T06:21:37;153529.50;;;5.83;100.00
38852;BME280;24605;50.092;9.182;2023-12-14T06:24:05;153513.94;;;5.76;100.00
38852;BME280;24605;50.092;9.182;2023-12-14T06:26:31;153476.25;;;5.61;100.00
38852;BME280;24605;50.092;9.182;2023-12-14T06:28:58;153467.16;;;5.58;100.00
38852;BME280;24605;50.092;9.182;2023-12-14T06:31:24;153459.41;;;5.55;100.00
38852;BME280;24605;50.092;9.182;2023-12-14T06:33:51;153419.13;;;5.39;100.00
38852;BME280;24605;50.092;9.182;2023-12-14T06:36:17;153404.84;;;5.33;100.00
38852;BME280;24605;50.092;9.182;2023-12-14T06:38:45;153441.19;;;5.47;100.00
38852;BME280;24605;50.092;9.182;2023-12-14T06:41:20;153443.78;;;5.48;100.00
38852;BME280;24605;50.092;9.182;2023-12-14T06:43:46;153519.13;;;5.78;100.00
38852;BME280;24605;50.092;9.182;2023-12-14T06:46:13;153507.44;;;5.74;100.00
38852;BME280;24605;50.092;9.182;2023-12-14T06:48:40;153511.31;;;5.75;100.00
38852;BME280;24605;50.092;9.182;2023-12-14T06:51:06;153464.56;;;5.57;100.00
38852;BME280;24605;50.092;9.182;2023-12-14T06:53:33;153439.91;;;5.47;100.00
38852;BME280;24605;50.092;9.182;2023-12-14T06:56:00;153452.88;;;5.52;100.00
38852;BME280;24605;50.092;9.182;2023-12-14T06:58:28;153419.13;;;5.39;100.00
38852;BME280;24605;50.092;9.182;2023-12-14T07:00:54;153460.69;;;5.55;100.00
38852;BME280;24605;50.092;9.182;2023-12-14T07:03:21;153476.25;;;5.61;100.00
38852;BME280;24605;50.092;9.182;2023-12-14T07:05:47;153490.53;;;5.67;100.00
38852;BME280;24605;50.092;9.182;2023-12-14T07:08:14;153460.69;;;5.55;100.00
38852;BME280;24605;50.092;9.182;2023-12-14T07:10:41;153454.19;;;5.53;100.00
38852;BME280;24605;50.092;9.182;2023-12-14T07:13:08;153485.34;;;5.65;100.00
38852;BME280;24605;50.092;9.182;2023-12-14T07:15:36;153502.22;;;5.72;100.00
38852;BME280;24605;50.092;9.182;2023-12-14T07:18:02;153485.34;;;5.65;100.00
38852;BME280;24605;50.092;9.182;2023-12-14T07:20:29;153443.78;;;5.48;100.00
38852;BME280;24605;50.092;9.182;2023-12-14T07:22:55;153455.47;;;5.53;100.00
38852;BME280;24605;50.092;9.182;2023-12-14T07:25:22;153420.41;;;5.39;100.00
38852;BME280;24605;50.092;9.182;2023-12-14T07:27:48;153389.28;;;5.27;100.00
38852;BME280;24605;50.092;9.182;2023-12-14T07:30:16;153456.78;;;5.54;100.00
38852;BME280;24605;50.092;9.182;2023-12-14T07:32:44;153445.09;;;5.49;100.00
38852;BME280;24605;50.092;9.182;2023-12-14T07:35:10;153445.09;;;5.49;100.00
38852;BME280;24605;50.092;9.182;2023-12-14T07:37:36;153487.94;;;5.66;100.00
38852;BME280;24605;50.092;9.182;2023-12-14T07:40:04;153500.97;;;5.71;100.00
38852;BME280;24605;50.092;9.182;2023-12-14T07:42:31;153545.13;;;5.89;100.00
38852;BME280;24605;50.092;9.182;2023-12-14T07:44:57;153513.94;;;5.76;100.00
38852;BME280;24605;50.092;9.182;2023-12-14T07:47:23;153550.28;;;5.91;100.00
38852;BME280;24605;50.092;9.182;2023-12-14T07:49:51;153524.34;;;5.80;100.00
38852;BME280;24605;50.092;9.182;2023-12-14T07:52:17;153542.50;;;5.88;100.00
38852;BME280;24605;50.092;9.182;2023-12-14T07:54:44;153555.47;;;5.93;100.00
38852;BME280;24605;50.092;9.182;2023-12-14T07:57:10;153560.69;;;5.95;100.00
38852;BME280;24605;50.092;9.182;2023-12-14T07:59:37;153530.81;;;5.83;100.00
38852;BME280;24605;50.092;9.182;2023-12-14T08:02:03;153532.09;;;5.84;100.00
38852;BME280;24605;50.092;9.182;2023-12-14T08:04:30;153495.75;;;5.69;100.00
38852;BME280;24605;50.092;9.182;2023-12-14T08:06:59;153516.53;;;5.77;100.00
38852;BME280;24605;50.092;9.182;2023-12-14T08:09:26;153513.94;;;5.76;100.00
38852;BME280;24605;50.092;9.182;2023-12-14T08:11:52;153507.44;;;5.74;100.00
38852;BME280;24605;50.092;9.182;2023-12-14T08:14:18;153510.03;;;5.75;100.00
38852;BME280;24605;50.092;9.182;2023-12-14T08:16:45;153542.50;;;5.88;100.00
38852;BME280;24605;50.092;9.182;2023-12-14T08:19:11;153524.34;;;5.80;100.00
38852;BME280;24605;50.092;9.182;2023-12-14T08:21:38;153524.34;;;5.80;100.00
38852;BME280;24605;50.092;9.182;2023-12-14T08:24:06;153526.94;;;5.82;100.00
38852;BME280;24605;50.092;9.182;2023-12-14T08:26:32;153503.56;;;5.72;100.00
38852;BME280;24605;50.092;9.182;2023-12-14T08:28:59;153490.53;;;5.67;100.00
38852;BME280;24605;50.092;9.182;2023-12-14T08:31:25;153487.94;;;5.66;100.00
38852;BME280;24605;50.092;9.182;2023-12-14T08:33:52;153490.53;;;5.67;100.00
38852;BME280;24605;50.092;9.182;2023-12-14T08:36:18;153481.47;;;5.63;100.00
38852;BME280;24605;50.092;9.182;2023-12-14T08:38:45;153490.53;;;5.67;100.00
38852;BME280;24605;50.092;9.182;2023-12-14T08:41:13;153477.56;;;5.62;100.00
38852;BME280;24605;50.092;9.182;2023-12-14T08:43:40;153482.78;;;5.64;100.00
38852;BME280;24605;50.092;9.182;2023-12-14T08:46:06;153482.78;;;5.64;100.00
38852;BME280;24605;50.092;9.182;2023-12-14T08:48:33;153463.28;;;5.56;100.00
38852;BME280;24605;50.092;9.182;2023-12-14T08:51:01;153471.09;;;5.59;100.00
38852;BME280;24605;50.092;9.182;2023-12-14T08:53:27;153442.50;;;5.48;100.00
38852;BME280;24605;50.092;9.182;2023-12-14T08:55:55;153426.94;;;5.42;100.00
38852;BME280;24605;50.092;9.182;2023-12-14T08:58:22;153442.50;;;5.48;100.00
38852;BME280;24605;50.092;9.182;2023-12-14T09:00:49;153447.72;;;5.50;100.00
38852;BME280;24605;50.092;9.182;2023-12-14T09:03:18;153430.81;;;5.43;100.00
38852;BME280;24605;50.092;9.182;2023-12-14T09:05:44;153451.59;;;5.52;100.00
38852;BME280;24605;50.092;9.182;2023-12-14T09:08:11;153455.47;;;5.53;100.00
38852;BME280;24605;50.092;9.182;2023-12-14T09:10:38;153438.63;;;5.46;100.00
38852;BME280;24605;50.092;9.182;2023-12-14T09:13:04;153454.19;;;5.53;100.00
38852;BME280;24605;50.092;9.182;2023-12-14T09:15:32;153467.16;;;5.58;100.00
38852;BME280;24605;50.092;9.182;2023-12-14T09:17:59;153477.56;;;5.62;100.00
38852;BME280;24605;50.092;9.182;2023-12-14T09:20:26;153461.97;;;5.56;100.00
38852;BME280;24605;50.092;9.182;2023-12-14T09:22:53;153439.91;;;5.47;100.00
38852;BME280;24605;50.092;9.182;2023-12-14T09:25:19;153441.19;;;5.47;100.00
38852;BME280;24605;50.092;9.182;2023-12-14T09:27:45;153441.19;;;5.47;100.00
38852;BME280;24605;50.092;9.182;2023-12-14T09:30:13;153441.19;;;5.47;100.00
38852;BME280;24605;50.092;9.182;2023-12-14T09:32:40;153460.69;;;5.55;100.00
38852;BME280;24605;50.092;9.182;2023-12-14T09:35:07;153465.88;;;5.57;100.00
38852;BME280;24605;50.092;9.182;2023-12-14T09:37:34;153459.41;;;5.55;100.00
38852;BME280;24605;50.092;9.182;2023-12-14T09:40:01;153471.09;;;5.59;100.00
38852;BME280;24605;50.092;9.182;2023-12-14T09:42:27;153455.47;;;5.53;100.00
38852;BME280;24605;50.092;9.182;2023-12-14T09:44:54;153477.56;;;5.62;100.00
38852;BME280;24605;50.092;9.182;2023-12-14T09:47:21;153461.97;;;5.56;100.00
38852;BME280;24605;50.092;9.182;2023-12-14T09:49:49;153445.09;;;5.49;100.00
38852;BME280;24605;50.092;9.182;2023-12-14T09:52:18;153445.09;;;5.49;100.00
38852;BME280;24605;50.092;9.182;2023-12-14T09:54:44;153428.22;;;5.42;100.00
38852;BME280;24605;50.092;9.182;2023-12-14T09:57:10;153398.34;;;5.30;100.00
38852;BME280;24605;50.092;9.182;2023-12-14T09:59:37;153438.63;;;5.46;100.00
38852;BME280;24605;50.092;9.182;2023-12-14T10:02:11;153430.81;;;5.43;100.00
38852;BME280;24605;50.092;9.182;2023-12-14T10:04:38;153456.78;;;5.54;100.00
38852;BME280;24605;50.092;9.182;2023-12-14T10:07:06;153436.03;;;5.45;100.00
38852;BME280;24605;50.092;9.182;2023-12-14T10:09:33;153439.91;;;5.47;100.00
38852;BME280;24605;50.092;9.182;2023-12-14T10:12:03;153467.16;;;5.58;100.00
38852;BME280;24605;50.092;9.182;2023-12-14T10:14:30;153419.13;;;5.39;100.00
38852;BME280;24605;50.092;9.182;2023-12-14T10:16:57;153412.66;;;5.36;100.00
38852;BME280;24605;50.092;9.182;2023-12-14T10:19:24;153384.06;;;5.25;100.00
38852;BME280;24605;50.092;9.182;2023-12-14T10:21:50;153385.34;;;5.25;100.00
38852;BME280;24605;50.092;9.182;2023-12-14T10:24:18;153391.88;;;5.28;100.00
38852;BME280;24605;50.092;9.182;2023-12-14T10:26:45;153394.47;;;5.29;100.00
38852;BME280;24605;50.092;9.182;2023-12-14T10:29:11;153386.66;;;5.26;100.00
38852;BME280;24605;50.092;9.182;2023-12-14T10:31:38;153365.91;;;5.17;100.00
38852;BME280;24605;50.092;9.182;2023-12-14T10:34:05;153355.50;;;5.13;100.00
38852;BME280;24605;50.092;9.182;2023-12-14T10:36:32;153346.41;;;5.10;100.00
38852;BME280;24605;50.092;9.182;2023-12-14T10:39:00;153341.19;;;5.08;100.00
38852;BME280;24605;50.092;9.182;2023-12-14T10:41:30;153324.38;;;5.01;100.00
38852;BME280;24605;50.092;9.182;2023-12-14T10:43:59;153271.16;;;4.80;100.00
38852;BME280;24605;50.092;9.182;2023-12-14T10:46:27;153323.03;;;5.00;100.00
38852;BME280;24605;50.092;9.182;2023-12-14T10:48:53;153352.88;;;5.12;100.00
38852;BME280;24605;50.092;9.182;2023-12-14T10:51:22;153304.88;;;4.93;100.00
38852;BME280;24605;50.092;9.182;2023-12-14T10:53:50;153298.38;;;4.91;100.00
38852;BME280;24605;50.092;9.182;2023-12-14T10:56:17;153267.22;;;4.78;100.00
38852;BME280;24605;50.092;9.182;2023-12-14T10:58:47;153311.34;;;4.96;100.00
38852;BME280;24605;50.092;9.182;2023-12-14T11:01:15;153268.53;;;4.79;100.00
38852;BME280;24605;50.092;9.182;2023-12-14T11:03:43;153295.78;;;4.90;100.00
38852;BME280;24605;50.092;9.182;2023-12-14T11:06:28;153272.41;;;4.80;100.00
38852;BME280;24605;50.092;9.182;2023-12-14T11:08:58;153280.22;;;4.83;100.00
38852;BME280;24605;50.092;9.182;2023-12-14T11:11:28;153284.09;;;4.85;100.00
38852;BME280;24605;50.092;9.182;2023-12-14T11:13:56;153262.00;;;4.76;100.00
38852;BME280;24605;50.092;9.182;2023-12-14T11:16:23;153260.75;;;4.76;100.00
38852;BME280;24605;50.092;9.182;2023-12-14T11:19:24;153336.03;;;5.06;100.00
38852;BME280;24605;50.092;9.182;2023-12-14T11:22:09;153345.13;;;5.09;100.00
38852;BME280;24605;50.092;9.182;2023-12-14T11:24:38;153329.53;;;5.03;100.00
38852;BME280;24605;50.092;9.182;2023-12-14T11:27:07;153294.50;;;4.89;100.00
38852;BME280;24605;50.092;9.182;2023-12-14T11:29:36;153302.28;;;4.92;100.00
38852;BME280;24605;50.092;9.182;2023-12-14T11:32:05;153332.13;;;5.04;100.00
38852;BME280;24605;50.092;9.182;2023-12-14T11:34:32;153358.09;;;5.14;100.00
38852;BME280;24605;50.092;9.182;2023-12-14T11:36:58;153333.44;;;5.05;100.00
38852;BME280;24605;50.092;9.182;2023-12-14T11:39:29;153290.59;;;4.88;100.00
38852;BME280;24605;50.092;9.182;2023-12-14T11:41:59;153342.53;;;5.08;100.00
38852;BME280;24605;50.092;9.182;2023-12-14T11:44:26;153308.75;;;4.95;100.00
38852;BME280;24605;50.092;9.182;2023-12-14T11:46:53;153329.53;;;5.03;100.00
38852;BME280;24605;50.092;9.182;2023-12-14T11:49:19;153346.41;;;5.10;100.00
38852;BME280;24605;50.092;9.182;2023-12-14T11:51:46;153347.72;;;5.10;100.00
38852;BME280;24605;50.092;9.182;2023-12-14T11:54:13;153350.28;;;5.11;100.00
38852;BME280;24605;50.092;9.182;2023-12-14T11:56:45;153294.50;;;4.89;100.00
38852;BME280;24605;50.092;9.182;2023-12-14T11:59:12;153347.72;;;5.10;100.00
38852;BME280;24605;50.092;9.182;2023-12-14T12:01:39;153339.94;;;5.07;100.00
38852;BME280;24605;50.092;9.182;2023-12-14T12:04:09;153304.88;;;4.93;100.00
38852;BME280;24605;50.092;9.182;2023-12-14T12:06:36;153328.25;;;5.02;100.00
38852;BME280;24605;50.092;9.182;2023-12-14T12:09:03;153268.53;;;4.79;100.00
38852;BME280;24605;50.092;9.182;2023-12-14T12:11:33;153316.56;;;4.98;100.00
38852;BME280;24605;50.092;9.182;2023-12-14T12:13:59;153290.59;;;4.88;100.00
38852;BME280;24605;50.092;9.182;2023-12-14T12:16:26;153307.47;;;4.94;100.00
38852;BME280;24605;50.092;9.182;2023-12-14T12:18:53;153316.56;;;4.98;100.00
38852;BME280;24605;50.092;9.182;2023-12-14T12:21:21;153315.28;;;4.97;100.00
38852;BME280;24605;50.092;9.182;2023-12-14T12:23:47;153308.75;;;4.95;100.00
38852;BME280;24605;50.092;9.182;2023-12-14T12:26:14;153355.50;;;5.13;100.00
38852;BME280;24605;50.092;9.182;2023-12-14T12:28:40;153358.09;;;5.14;100.00
38852;BME280;24605;50.092;9.182;2023-12-14T12:31:07;153356.81;;;5.14;100.00
38852;BME280;24605;50.092;9.182;2023-12-14T12:33:33;153342.53;;;5.08;100.00
38852;BME280;24605;50.092;9.182;2023-12-14T12:36:03;153376.25;;;5.22;100.00
38852;BME280;24605;50.092;9.182;2023-12-14T12:38:32;153380.19;;;5.23;100.00
38852;BME280;24605;50.092;9.182;2023-12-14T12:40:58;153393.16;;;5.28;100.00
38852;BME280;24605;50.092;9.182;2023-12-14T12:43:26;153386.66;;;5.26;100.00
38852;BME280;24605;50.092;9.182;2023-12-14T12:45:52;153369.78;;;5.19;100.00
38852;BME280;24605;50.092;9.182;2023-12-14T12:48:19;153425.59;;;5.41;100.00
38852;BME280;24605;50.092;9.182;2023-12-14T12:50:45;153342.53;;;5.08;100.00